createdAt,value
2022-07-26T00:04:16.565Z,21.48
2022-07-26T00:09:20.835Z,21.80
2022-07-26T00:14:25.043Z,22.06
2022-07-26T00:19:30.491Z,22.02
2022-07-26T00:24:35.570Z,21.94
2022-07-26T00:29:39.852Z,21.74
2022-07-26T00:34:45.292Z,21.51
2022-07-26T00:39:49.441Z,21.40
2022-07-26T00:44:53.921Z,21.23
2022-07-26T00:49:59.671Z,21.43
2022-07-26T00:55:04.758Z,21.58
2022-07-26T01:00:12.520Z,21.82
2022-07-26T01:05:18.535Z,21.88
2022-07-26T01:10:22.575Z,21.60
2022-07-26T01:15:26.671Z,21.51
2022-07-26T01:20:32.207Z,21.56
2022-07-26T01:25:43.214Z,21.70
2022-07-26T01:30:47.806Z,21.56
2022-07-26T01:35:51.933Z,20.96
2022-07-26T01:40:57.471Z,20.83
2022-07-26T01:46:01.700Z,21.37
2022-07-26T01:51:06.152Z,21.44
2022-07-26T01:56:12.130Z,21.35
2022-07-26T02:01:16.478Z,21.04
2022-07-26T02:06:40.730Z,21.21
2022-07-26T02:11:48.876Z,21.31
2022-07-26T02:16:59.897Z,21.21
2022-07-26T02:22:04.389Z,21.32
2022-07-26T02:27:10.635Z,21.13
2022-07-26T02:32:14.783Z,21.25
2022-07-26T02:37:19.180Z,21.40
2022-07-26T02:42:24.822Z,20.86
2022-07-26T02:47:29.257Z,20.37
2022-07-26T02:52:34.761Z,20.46
2022-07-26T02:57:45.574Z,20.59
2022-07-26T03:02:51.871Z,20.67
2022-07-26T03:07:55.936Z,20.45
2022-07-26T03:13:01.507Z,20.46
2022-07-26T03:18:06.106Z,20.14
2022-07-26T03:23:10.145Z,20.11
2022-07-26T03:28:19.505Z,19.99
2022-07-26T03:33:23.902Z,20.00
2022-07-26T03:38:27.944Z,19.90
2022-07-26T03:43:36.234Z,20.01
2022-07-26T03:48:40.724Z,19.98
2022-07-26T03:53:45.829Z,20.18
2022-07-26T03:58:51.234Z,20.46
2022-07-26T04:03:55.401Z,20.36
2022-07-26T04:08:59.655Z,20.46
2022-07-26T04:14:05.557Z,20.64
2022-07-26T04:19:10.372Z,20.62
2022-07-26T04:24:14.668Z,20.78
2022-07-26T04:29:20.359Z,20.83
2022-07-26T04:34:24.639Z,21.05
2022-07-26T04:39:28.773Z,21.31
2022-07-26T04:44:34.268Z,21.35
2022-07-26T04:49:38.741Z,21.12
2022-07-26T04:54:42.785Z,21.05
2022-07-26T04:59:58.352Z,21.12
2022-07-26T05:05:12.392Z,21.05
2022-07-26T05:10:18.777Z,21.37
2022-07-26T05:20:29.534Z,21.47
2022-07-26T05:25:34.178Z,21.70
2022-07-26T05:30:39.825Z,21.71
2022-07-26T05:35:44.249Z,22.05
2022-07-26T05:40:50.749Z,22.09
2022-07-26T05:45:58.001Z,22.09
2022-07-26T05:51:02.355Z,22.42
2022-07-26T05:56:07.612Z,22.57
2022-07-26T06:01:13.049Z,22.57
2022-07-26T06:06:17.453Z,22.60
2022-07-26T06:11:21.701Z,22.98
2022-07-26T06:16:27.480Z,23.09
2022-07-26T06:21:31.561Z,23.27
2022-07-26T06:26:35.750Z,23.16
2022-07-26T06:31:41.830Z,23.20
2022-07-26T06:36:46.535Z,23.41
2022-07-26T06:41:50.871Z,23.75
2022-07-26T06:47:01.003Z,23.84
2022-07-26T06:52:05.419Z,24.13
2022-07-26T06:57:10.131Z,24.15
2022-07-26T07:02:16.065Z,24.34
2022-07-26T07:07:20.229Z,24.60
2022-07-26T07:12:24.357Z,24.88
2022-07-26T07:17:30.775Z,25.11
2022-07-26T07:22:34.886Z,25.30
2022-07-26T07:27:38.981Z,25.56
2022-07-26T07:32:47.303Z,25.84
2022-07-26T07:37:53.725Z,26.05
2022-07-26T07:42:58.379Z,26.17
2022-07-26T07:48:04.207Z,26.52
2022-07-26T07:53:08.222Z,26.83
2022-07-26T07:58:12.335Z,26.70
2022-07-26T08:03:20.058Z,26.91
2022-07-26T08:08:24.160Z,27.02
2022-07-26T08:13:28.501Z,27.41
2022-07-26T08:18:34.246Z,27.50
2022-07-26T08:23:38.388Z,27.82
2022-07-26T08:28:47.845Z,27.11
2022-07-26T08:33:53.974Z,26.99
2022-07-26T08:38:58.102Z,26.88
2022-07-26T08:44:12.954Z,27.29
2022-07-26T08:49:18.604Z,27.91
2022-07-26T08:59:21.774Z,28.43
2022-07-26T09:04:32.088Z,28.14
2022-07-26T09:09:40.339Z,28.42
2022-07-26T09:14:48.025Z,29.28
2022-07-26T09:20:06.757Z,29.94
2022-07-26T09:25:23.791Z,29.76
2022-07-26T09:30:31.198Z,29.68
2022-07-26T09:35:50.711Z,30.12
2022-07-26T09:40:56.116Z,29.56
2022-07-26T09:46:07.512Z,29.10
2022-07-26T09:51:12.047Z,29.05
2022-07-26T09:56:16.339Z,29.86
2022-07-26T10:01:21.880Z,30.43
2022-07-26T10:06:30.260Z,30.52
2022-07-26T10:11:42.977Z,30.28
2022-07-26T10:16:48.462Z,29.58
2022-07-26T10:21:53.541Z,30.30
2022-07-26T10:27:00.553Z,30.58
2022-07-26T10:32:21.441Z,31.02
2022-07-26T10:37:29.440Z,30.99
2022-07-26T10:42:45.496Z,31.98
2022-07-26T10:48:13.833Z,32.43
2022-07-26T10:53:19.107Z,32.58
2022-07-26T10:58:24.923Z,32.53
2022-07-26T11:03:40.130Z,33.07
2022-07-26T11:08:48.326Z,33.19
2022-07-26T11:13:53.824Z,32.47
2022-07-26T11:18:59.266Z,32.78
2022-07-26T11:24:04.149Z,32.45
2022-07-26T11:29:08.211Z,33.44
2022-07-26T11:34:20.562Z,33.27
2022-07-26T11:39:25.770Z,33.36
2022-07-26T11:44:30.548Z,33.33
2022-07-26T11:55:03.046Z,34.30
2022-07-26T12:00:08.627Z,34.13
2022-07-26T12:05:22.334Z,34.13
2022-07-26T12:10:27.693Z,34.17
2022-07-26T12:15:45.747Z,34.50
2022-07-26T12:21:04.465Z,34.09
2022-07-26T12:26:24.585Z,33.50
2022-07-26T12:31:30.407Z,33.56
2022-07-26T12:36:36.385Z,33.64
2022-07-26T12:41:42.526Z,33.59
2022-07-26T12:46:46.835Z,34.00
2022-07-26T12:51:52.619Z,34.34
2022-07-26T12:56:56.826Z,34.21
2022-07-26T13:02:01.357Z,34.50
2022-07-26T13:07:08.336Z,33.93
2022-07-26T13:12:13.462Z,33.89
2022-07-26T13:17:18.011Z,33.77
2022-07-26T13:22:23.632Z,34.04
2022-07-26T13:27:35.532Z,34.34
2022-07-26T13:32:41.534Z,34.20
2022-07-26T13:37:47.743Z,34.04
2022-07-26T13:42:52.205Z,33.81
2022-07-26T13:47:56.946Z,33.99
2022-07-26T13:53:02.753Z,34.11
2022-07-26T13:58:10.087Z,34.03
2022-07-26T14:03:15.189Z,33.44
2022-07-26T14:08:23.273Z,33.57
2022-07-26T14:13:27.492Z,33.59
2022-07-26T14:18:33.184Z,33.38
2022-07-26T14:23:38.814Z,33.70
2022-07-26T14:28:42.945Z,33.42
2022-07-26T14:33:47.333Z,33.42
2022-07-26T14:38:53.068Z,33.48
2022-07-26T14:43:58.783Z,33.06
2022-07-26T14:49:02.798Z,32.80
2022-07-26T14:54:08.733Z,32.57
2022-07-26T14:59:14.929Z,32.99
2022-07-26T15:04:19.366Z,32.77
2022-07-26T15:09:26.377Z,32.69
2022-07-26T15:14:30.508Z,32.53
2022-07-26T15:19:35.154Z,32.43
2022-07-26T15:24:41.025Z,32.29
2022-07-26T15:29:46.939Z,32.17
2022-07-26T15:34:53.532Z,31.94
2022-07-26T15:39:59.666Z,31.84
2022-07-26T15:45:09.497Z,31.71
2022-07-26T15:50:15.755Z,31.68
2022-07-26T15:55:21.543Z,31.53
2022-07-26T16:00:27.131Z,31.56
2022-07-26T16:05:31.235Z,31.46
2022-07-26T16:10:37.371Z,31.43
2022-07-26T16:15:41.455Z,31.36
2022-07-26T16:20:47.304Z,31.26
2022-07-26T16:25:52.910Z,31.22
2022-07-26T16:30:57.006Z,31.32
2022-07-26T16:36:05.979Z,31.07
2022-07-26T16:41:12.233Z,31.08
2022-07-26T16:46:16.507Z,31.03
2022-07-26T16:51:21.623Z,30.82
2022-07-26T16:56:27.520Z,30.75
2022-07-26T17:01:31.733Z,30.77
2022-07-26T17:06:35.861Z,30.74
2022-07-26T17:11:41.438Z,30.70
2022-07-26T17:16:45.787Z,30.34
2022-07-26T17:21:50.091Z,30.06
2022-07-26T17:26:55.585Z,30.02
2022-07-26T17:31:59.711Z,29.74
2022-07-26T17:37:07.088Z,29.46
2022-07-26T17:42:15.851Z,28.82
2022-07-26T17:47:28.317Z,28.54
2022-07-26T17:52:33.100Z,28.38
2022-07-26T17:57:38.800Z,28.22
2022-07-26T18:02:42.911Z,28.04
2022-07-26T18:07:47.062Z,27.69
2022-07-26T18:12:52.573Z,27.66
2022-07-26T18:17:56.736Z,27.60
2022-07-26T18:23:00.895Z,27.33
2022-07-26T18:28:07.324Z,27.16
2022-07-26T18:33:14.426Z,26.89
2022-07-26T18:38:19.374Z,26.71
2022-07-26T18:43:25.032Z,26.61
2022-07-26T18:48:29.330Z,26.39
2022-07-26T18:53:33.699Z,26.27
2022-07-26T18:58:39.316Z,26.13
2022-07-26T19:03:43.641Z,26.11
2022-07-26T19:08:47.854Z,25.86
2022-07-26T19:13:53.348Z,25.83
2022-07-26T19:18:57.752Z,25.73
2022-07-26T19:24:02.098Z,25.44
2022-07-26T19:29:08.028Z,25.31
2022-07-26T19:34:12.632Z,25.24
2022-07-26T19:39:16.856Z,25.15
2022-07-26T19:44:22.358Z,25.03
2022-07-26T19:49:26.586Z,24.72
2022-07-26T19:54:30.935Z,24.15
2022-07-26T19:59:36.462Z,24.06
2022-07-26T20:04:45.483Z,23.90
2022-07-26T20:09:50.626Z,23.94
2022-07-26T20:14:56.224Z,24.04
2022-07-26T20:20:00.320Z,24.01
2022-07-26T20:25:04.525Z,24.05
2022-07-26T20:30:13.029Z,24.20
2022-07-26T20:35:17.238Z,24.25
2022-07-26T20:40:21.395Z,24.18
2022-07-26T20:45:29.024Z,24.28
2022-07-26T20:50:35.173Z,24.06
2022-07-26T20:55:39.551Z,23.82
2022-07-26T21:00:45.320Z,23.93
2022-07-26T21:05:49.984Z,23.99
2022-07-26T21:10:55.652Z,23.90
2022-07-26T21:16:01.236Z,23.81
2022-07-26T21:21:05.715Z,23.68
2022-07-26T21:26:12.686Z,23.46
2022-07-26T21:31:18.299Z,22.90
2022-07-26T21:36:22.806Z,22.67
2022-07-26T21:41:27.154Z,22.47
2022-07-26T21:46:32.861Z,22.57
2022-07-26T21:51:37.045Z,22.54
2022-07-26T21:56:41.483Z,22.16
2022-07-26T22:01:47.001Z,22.13
2022-07-26T22:06:51.242Z,22.19
2022-07-26T22:11:55.641Z,22.47
2022-07-26T22:17:02.179Z,22.30
2022-07-26T22:22:06.376Z,21.99
2022-07-26T22:27:10.694Z,22.23
2022-07-26T22:32:16.096Z,22.22
2022-07-26T22:37:20.223Z,22.25
2022-07-26T22:42:24.369Z,22.24
2022-07-26T22:47:29.953Z,22.40
2022-07-26T22:52:34.499Z,22.37
2022-07-26T22:57:38.646Z,22.56
2022-07-26T23:02:44.871Z,22.11
2022-07-26T23:07:49.002Z,22.01
2022-07-26T23:12:55.460Z,22.04
2022-07-26T23:18:01.097Z,22.04
2022-07-26T23:23:05.312Z,21.98
2022-07-26T23:28:09.312Z,21.64
2022-07-26T23:33:53.197Z,21.38
2022-07-26T23:38:54.976Z,21.33
2022-07-26T23:43:59.281Z,21.49
2022-07-26T23:49:05.254Z,21.62
2022-07-26T23:54:09.387Z,21.63
2022-07-26T23:59:14.438Z,21.33
